createdAt,value
2018-02-16T00:01:27.476Z,0.31
2018-02-16T00:03:55.108Z,0.13
2018-02-16T00:06:22.662Z,0.09
2018-02-16T00:08:50.254Z,0.21
2018-02-16T00:11:17.856Z,0.24
2018-02-16T00:13:45.439Z,0.19
2018-02-16T00:16:13.265Z,0.27
2018-02-16T00:18:40.952Z,0.43
2018-02-16T00:21:09.239Z,0.43
2018-02-16T00:23:36.872Z,0.40
2018-02-16T00:26:04.512Z,0.29
2018-02-16T00:28:32.079Z,0.17
2018-02-16T00:30:59.670Z,0.17
2018-02-16T00:33:27.310Z,0.28
2018-02-16T00:35:54.906Z,0.38
2018-02-16T00:38:22.505Z,0.49
2018-02-16T00:40:50.114Z,0.59
2018-02-16T00:43:17.945Z,0.59
2018-02-16T00:45:45.570Z,0.69
2018-02-16T00:48:13.171Z,0.77
2018-02-16T00:50:41.011Z,0.70
2018-02-16T00:53:09.038Z,0.46
2018-02-16T00:55:36.659Z,0.25
2018-02-16T00:58:04.242Z,0.15
2018-02-16T01:00:31.816Z,0.12
2018-02-16T01:02:59.388Z,0.09
2018-02-16T01:05:28.410Z,-0.01
2018-02-16T01:07:56.021Z,0.01
2018-02-16T01:10:23.587Z,0.09
2018-02-16T01:12:51.188Z,0.16
2018-02-16T01:15:18.886Z,0.14
2018-02-16T01:17:46.749Z,0.31
2018-02-16T01:20:14.504Z,0.35
2018-02-16T01:22:42.092Z,0.21
2018-02-16T01:25:09.936Z,0.22
2018-02-16T01:27:37.616Z,0.22
2018-02-16T01:30:05.221Z,0.24
2018-02-16T01:32:32.765Z,0.24
2018-02-16T01:35:00.393Z,0.17
2018-02-16T01:37:28.005Z,0.24
2018-02-16T01:39:55.589Z,0.51
2018-02-16T01:42:23.195Z,0.56
2018-02-16T01:44:52.000Z,0.52
2018-02-16T01:47:19.563Z,0.29
2018-02-16T01:52:45.099Z,0.06
2018-02-16T01:55:13.059Z,0.05
2018-02-16T01:57:40.754Z,0.07
2018-02-16T02:00:08.413Z,0.19
2018-02-16T02:02:36.199Z,0.30
2018-02-16T02:05:03.962Z,0.43
2018-02-16T02:07:31.552Z,0.49
2018-02-16T02:09:59.183Z,0.38
2018-02-16T02:12:26.758Z,0.21
2018-02-16T02:14:54.336Z,0.36
2018-02-16T02:17:21.912Z,0.36
2018-02-16T02:19:49.546Z,0.25
2018-02-16T02:22:17.336Z,0.12
2018-02-16T02:24:44.910Z,0.25
2018-02-16T02:27:13.672Z,0.34
2018-02-16T02:29:41.296Z,0.40
2018-02-16T02:32:09.172Z,0.47
2018-02-16T02:34:36.766Z,0.39
2018-02-16T02:37:04.701Z,0.33
2018-02-16T02:39:34.320Z,0.31
2018-02-16T02:42:01.919Z,0.39
2018-02-16T02:44:29.980Z,0.29
2018-02-16T02:46:57.930Z,0.22
2018-02-16T02:49:25.511Z,0.11
2018-02-16T02:51:53.311Z,0.09
2018-02-16T02:54:21.463Z,0.15
2018-02-16T02:56:49.277Z,0.14
2018-02-16T02:59:17.342Z,0.18
2018-02-16T03:01:44.951Z,0.10
2018-02-16T03:04:12.593Z,0.12
2018-02-16T03:06:40.954Z,0.18
2018-02-16T03:09:08.526Z,0.28
2018-02-16T03:11:36.107Z,0.28
2018-02-16T03:14:03.743Z,0.24
2018-02-16T03:16:31.355Z,0.30
2018-02-16T03:18:58.995Z,0.25
2018-02-16T03:21:27.887Z,0.20
2018-02-16T03:23:55.524Z,0.20
2018-02-16T03:26:23.165Z,0.32
2018-02-16T03:28:50.740Z,0.39
2018-02-16T03:31:20.156Z,0.40
2018-02-16T03:33:54.375Z,0.51
2018-02-16T03:36:24.649Z,0.47
2018-02-16T03:38:52.257Z,0.39
2018-02-16T03:41:20.098Z,0.33
2018-02-16T03:43:47.656Z,0.32
2018-02-16T03:46:15.271Z,0.39
2018-02-16T03:48:42.845Z,0.48
2018-02-16T03:51:10.728Z,0.53
2018-02-16T03:53:38.542Z,0.65
2018-02-16T03:56:06.133Z,0.75
2018-02-16T03:58:36.022Z,0.70
2018-02-16T04:01:03.606Z,0.62
2018-02-16T04:03:31.516Z,0.72
2018-02-16T04:05:59.079Z,0.69
2018-02-16T04:08:26.693Z,0.77
2018-02-16T04:10:54.270Z,0.87
2018-02-16T04:13:21.835Z,0.96
2018-02-16T04:15:49.419Z,1.05
2018-02-16T04:18:16.967Z,0.96
2018-02-16T04:20:44.538Z,0.84
2018-02-16T04:23:12.830Z,0.81
2018-02-16T04:25:40.387Z,0.74
2018-02-16T04:28:08.019Z,0.70
2018-02-16T04:30:35.592Z,0.69
2018-02-16T04:33:03.187Z,0.67
2018-02-16T04:35:30.783Z,0.64
2018-02-16T04:37:59.167Z,0.81
2018-02-16T04:40:26.815Z,1.01
2018-02-16T04:42:54.482Z,1.08
2018-02-16T04:45:22.068Z,1.16
2018-02-16T04:47:49.612Z,1.06
2018-02-16T04:50:17.209Z,1.01
2018-02-16T04:52:44.781Z,1.02
2018-02-16T04:55:13.225Z,0.89
2018-02-16T04:57:40.884Z,0.81
2018-02-16T05:00:09.377Z,1.00
2018-02-16T05:02:36.925Z,1.06
2018-02-16T05:05:04.542Z,1.06
2018-02-16T05:07:32.674Z,1.17
2018-02-16T05:10:00.282Z,1.26
2018-02-16T05:12:27.857Z,1.29
2018-02-16T05:14:55.413Z,1.28
2018-02-16T05:17:23.185Z,1.26
2018-02-16T05:19:50.956Z,1.14
2018-02-16T05:22:18.869Z,0.99
2018-02-16T05:24:46.409Z,0.85
2018-02-16T05:27:14.801Z,0.80
2018-02-16T05:29:43.380Z,0.89
2018-02-16T05:32:11.008Z,0.76
2018-02-16T05:34:38.580Z,0.76
2018-02-16T05:37:06.645Z,0.80
2018-02-16T05:39:34.565Z,0.93
2018-02-16T05:42:02.133Z,0.94
2018-02-16T05:44:29.714Z,1.05
2018-02-16T05:46:57.289Z,1.17
2018-02-16T05:49:25.133Z,1.17
2018-02-16T05:51:52.702Z,1.19
2018-02-16T05:54:20.296Z,1.09
2018-02-16T05:56:47.860Z,1.02
2018-02-16T05:59:15.413Z,0.99
2018-02-16T06:01:43.056Z,0.86
2018-02-16T06:04:10.785Z,0.81
2018-02-16T06:06:38.373Z,0.96
2018-02-16T06:09:06.219Z,1.04
2018-02-16T06:11:34.252Z,1.02
2018-02-16T06:14:01.805Z,1.02
2018-02-16T06:16:29.365Z,1.03
2018-02-16T06:18:56.940Z,0.99
2018-02-16T06:21:24.639Z,1.03
2018-02-16T06:23:52.320Z,1.19
2018-02-16T06:26:19.822Z,1.26
2018-02-16T06:28:47.413Z,1.33
2018-02-16T06:31:15.943Z,1.25
2018-02-16T06:33:43.480Z,1.29
2018-02-16T06:36:11.273Z,1.36
2018-02-16T06:38:38.862Z,1.35
2018-02-16T06:41:06.763Z,1.39
2018-02-16T06:43:34.579Z,1.41
2018-02-16T06:46:02.162Z,1.44
2018-02-16T06:48:29.749Z,1.35
2018-02-16T06:50:57.307Z,1.42
2018-02-16T06:53:24.877Z,1.45
2018-02-16T06:55:52.437Z,1.50
2018-02-16T06:58:20.200Z,1.35
2018-02-16T07:00:47.878Z,1.21
2018-02-16T07:03:19.964Z,1.25
2018-02-16T07:05:49.495Z,1.13
2018-02-16T07:08:17.075Z,1.06
2018-02-16T07:10:46.236Z,1.00
2018-02-16T07:13:13.817Z,1.18
2018-02-16T07:15:54.028Z,1.39
2018-02-16T07:18:21.660Z,1.38
2018-02-16T07:20:52.017Z,1.41
2018-02-16T07:23:19.728Z,1.31
2018-02-16T07:25:47.289Z,1.31
2018-02-16T07:28:14.927Z,1.52
2018-02-16T07:30:42.535Z,1.61
2018-02-16T07:33:10.368Z,1.35
2018-02-16T07:35:38.464Z,1.20
2018-02-16T07:38:06.048Z,1.37
2018-02-16T07:40:33.618Z,1.40
2018-02-16T07:43:01.220Z,1.21
2018-02-16T07:45:29.793Z,1.31
2018-02-16T07:48:00.056Z,1.22
2018-02-16T07:50:29.656Z,1.30
2018-02-16T07:52:59.949Z,1.49
2018-02-16T07:55:28.912Z,1.46
2018-02-16T07:57:56.711Z,1.51
2018-02-16T08:00:24.426Z,1.39
2018-02-16T08:02:52.156Z,1.34
2018-02-16T08:05:19.735Z,1.37
2018-02-16T08:07:47.311Z,1.46
2018-02-16T08:10:15.013Z,1.45
2018-02-16T08:12:42.602Z,1.51
2018-02-16T08:15:11.459Z,1.73
2018-02-16T08:17:42.093Z,1.97
2018-02-16T08:20:09.803Z,2.12
2018-02-16T08:22:37.365Z,2.15
2018-02-16T08:25:09.290Z,2.19
2018-02-16T08:27:36.997Z,2.22
2018-02-16T08:30:04.567Z,1.88
2018-02-16T08:32:32.207Z,2.08
2018-02-16T08:35:00.125Z,2.25
2018-02-16T08:37:28.255Z,2.25
2018-02-16T08:39:55.848Z,2.43
2018-02-16T08:42:24.161Z,2.59
2018-02-16T08:44:51.750Z,2.71
2018-02-16T08:47:19.535Z,2.63
2018-02-16T08:49:47.189Z,2.55
2018-02-16T08:52:14.761Z,2.59
2018-02-16T08:54:42.413Z,2.65
2018-02-16T08:57:11.907Z,2.63
2018-02-16T08:59:39.577Z,2.58
2018-02-16T09:02:07.238Z,2.63
2018-02-16T09:04:35.242Z,2.73
2018-02-16T09:07:02.934Z,2.94
2018-02-16T09:09:32.144Z,3.10
2018-02-16T09:11:59.847Z,3.05
2018-02-16T09:14:27.751Z,3.24
2018-02-16T09:16:56.621Z,3.33
2018-02-16T09:19:25.122Z,3.40
2018-02-16T09:21:53.628Z,3.38
2018-02-16T09:24:21.624Z,3.59
2018-02-16T09:26:49.383Z,3.45
2018-02-16T09:29:18.093Z,3.15
2018-02-16T09:31:46.058Z,3.04
2018-02-16T09:34:13.868Z,3.01
2018-02-16T09:36:42.120Z,3.13
2018-02-16T09:39:11.550Z,3.25
2018-02-16T09:41:39.335Z,3.29
2018-02-16T09:44:06.904Z,3.10
2018-02-16T09:46:34.522Z,3.13
2018-02-16T09:49:02.178Z,3.31
2018-02-16T09:51:30.465Z,3.15
2018-02-16T09:53:58.057Z,3.03
2018-02-16T09:56:25.641Z,2.94
2018-02-16T09:58:53.226Z,2.96
2018-02-16T10:01:22.143Z,2.95
2018-02-16T10:03:49.789Z,2.89
2018-02-16T10:06:17.404Z,2.94
2018-02-16T10:08:45.310Z,3.03
2018-02-16T10:11:12.933Z,3.18
2018-02-16T10:13:40.578Z,3.42
2018-02-16T10:16:08.314Z,3.59
2018-02-16T10:18:36.700Z,3.58
2018-02-16T10:21:04.345Z,3.81
2018-02-16T10:23:31.942Z,3.82
2018-02-16T10:25:59.582Z,3.98
2018-02-16T10:28:27.545Z,4.15
2018-02-16T10:30:55.980Z,4.06
2018-02-16T10:33:23.534Z,3.93
2018-02-16T10:35:51.133Z,3.90
2018-02-16T10:38:18.765Z,3.82
2018-02-16T10:40:48.119Z,3.57
2018-02-16T10:43:15.912Z,3.54
2018-02-16T10:45:44.155Z,3.56
2018-02-16T10:48:11.814Z,3.53
2018-02-16T10:50:41.656Z,3.40
2018-02-16T10:53:09.666Z,3.49
2018-02-16T10:55:39.205Z,3.54
2018-02-16T10:58:06.839Z,3.84
2018-02-16T11:00:41.946Z,4.03
2018-02-16T11:03:15.021Z,4.25
2018-02-16T11:05:57.920Z,4.31
2018-02-16T11:08:39.321Z,4.37
2018-02-16T11:11:09.038Z,4.42
2018-02-16T11:13:37.402Z,4.43
2018-02-16T11:16:06.060Z,4.24
2018-02-16T11:18:37.971Z,4.24
2018-02-16T11:31:47.816Z,4.52
2018-02-16T11:34:17.253Z,4.64
2018-02-16T11:36:45.728Z,4.74
2018-02-16T11:39:13.993Z,4.77
2018-02-16T11:41:45.659Z,5.00
2018-02-16T11:44:13.554Z,4.79
2018-02-16T11:46:41.317Z,4.88
2018-02-16T11:49:09.275Z,4.97
2018-02-16T11:51:39.044Z,5.17
2018-02-16T11:54:07.550Z,5.04
2018-02-16T11:56:37.263Z,4.84
2018-02-16T11:59:06.672Z,4.73
2018-02-16T12:01:35.495Z,4.68
2018-02-16T12:04:03.541Z,4.57
2018-02-16T12:06:31.162Z,4.52
2018-02-16T12:08:58.787Z,4.99
2018-02-16T12:11:26.573Z,5.16
2018-02-16T12:13:54.219Z,5.31
2018-02-16T12:16:23.390Z,5.50
2018-02-16T12:18:50.978Z,5.58
2018-02-16T12:21:18.575Z,5.61
2018-02-16T12:23:46.169Z,5.66
2018-02-16T12:26:13.758Z,6.64
2018-02-16T12:28:41.372Z,6.72
2018-02-16T12:31:09.583Z,6.77
2018-02-16T12:33:37.190Z,6.54
2018-02-16T12:36:05.037Z,6.61
2018-02-16T12:38:32.582Z,6.91
2018-02-16T12:41:03.893Z,6.84
2018-02-16T12:43:32.565Z,6.74
2018-02-16T12:46:00.185Z,7.13
2018-02-16T12:48:27.788Z,7.56
2018-02-16T12:50:55.709Z,7.74
2018-02-16T12:53:23.882Z,7.65
2018-02-16T12:55:51.522Z,7.86
2018-02-16T12:58:19.096Z,8.24
2018-02-16T13:00:47.104Z,8.15
2018-02-16T13:03:17.313Z,8.11
2018-02-16T13:05:45.010Z,7.81
2018-02-16T13:08:12.676Z,7.15
2018-02-16T13:10:40.278Z,7.65
2018-02-16T13:13:08.523Z,7.29
2018-02-16T13:15:36.534Z,6.66
2018-02-16T13:18:04.448Z,6.14
2018-02-16T13:20:32.342Z,5.95
2018-02-16T13:22:59.970Z,5.81
2018-02-16T13:25:27.539Z,6.13
2018-02-16T13:27:55.410Z,6.42
2018-02-16T13:30:23.300Z,6.11
2018-02-16T13:32:50.872Z,5.88
2018-02-16T13:35:18.525Z,6.07
2018-02-16T13:37:46.141Z,6.31
2018-02-16T13:40:13.825Z,7.04
2018-02-16T13:42:41.480Z,7.20
2018-02-16T13:45:09.209Z,7.13
2018-02-16T13:47:37.068Z,6.75
2018-02-16T13:50:04.724Z,6.01
2018-02-16T13:52:32.323Z,5.68
2018-02-16T13:55:00.426Z,5.47
2018-02-16T13:57:29.033Z,5.22
2018-02-16T13:59:56.655Z,5.15
2018-02-16T14:02:24.903Z,5.12
2018-02-16T14:04:52.498Z,5.06
2018-02-16T14:07:20.187Z,5.00
2018-02-16T14:09:47.827Z,4.97
2018-02-16T14:12:15.852Z,4.85
2018-02-16T14:14:43.491Z,4.67
2018-02-16T14:17:12.339Z,4.74
2018-02-16T14:19:39.998Z,4.77
2018-02-16T14:22:07.664Z,4.72
2018-02-16T14:24:35.271Z,4.83
2018-02-16T14:27:03.642Z,4.76
2018-02-16T14:29:31.398Z,4.68
2018-02-16T14:31:59.012Z,4.61
2018-02-16T14:34:26.602Z,4.55
2018-02-16T14:36:54.196Z,4.41
2018-02-16T14:39:21.832Z,4.29
2018-02-16T14:41:49.530Z,4.31
2018-02-16T14:44:17.177Z,4.35
2018-02-16T14:46:44.809Z,4.36
2018-02-16T14:49:13.072Z,4.40
2018-02-16T14:51:40.649Z,4.32
2018-02-16T14:54:08.387Z,4.30
2018-02-16T14:56:36.117Z,4.43
2018-02-16T14:59:03.734Z,4.44
2018-02-16T15:01:31.724Z,4.27
2018-02-16T15:03:59.353Z,4.25
2018-02-16T15:06:27.403Z,4.23
2018-02-16T15:08:55.015Z,4.12
2018-02-16T15:11:24.412Z,4.09
2018-02-16T15:13:52.073Z,4.10
2018-02-16T15:16:19.661Z,4.02
2018-02-16T15:18:47.242Z,3.85
2018-02-16T15:21:16.891Z,3.98
2018-02-16T15:23:45.423Z,4.20
2018-02-16T15:26:13.060Z,4.27
2018-02-16T15:28:40.674Z,4.33
2018-02-16T15:31:17.120Z,4.52
2018-02-16T15:33:45.108Z,4.56
2018-02-16T15:36:12.708Z,4.46
2018-02-16T15:38:40.341Z,4.37
2018-02-16T15:41:09.747Z,4.30
2018-02-16T15:43:39.741Z,4.22
2018-02-16T15:46:07.391Z,4.13
2018-02-16T15:48:36.818Z,4.00
2018-02-16T15:51:06.578Z,3.90
2018-02-16T15:53:34.193Z,3.82
2018-02-16T15:56:02.083Z,3.76
2018-02-16T15:58:29.689Z,3.69
2018-02-16T16:00:59.300Z,3.62
2018-02-16T16:03:28.461Z,3.55
2018-02-16T16:05:56.467Z,3.38
2018-02-16T16:08:24.069Z,3.31
2018-02-16T16:10:51.997Z,3.21
2018-02-16T16:13:19.903Z,3.13
2018-02-16T16:15:47.610Z,3.08
2018-02-16T16:18:15.390Z,3.06
2018-02-16T16:20:43.243Z,3.00
2018-02-16T16:23:11.545Z,3.00
2018-02-16T16:25:39.481Z,2.91
2018-02-16T16:28:07.142Z,2.79
2018-02-16T16:30:34.777Z,2.82
2018-02-16T16:33:02.772Z,2.76
2018-02-16T16:35:31.067Z,2.68
2018-02-16T16:38:02.364Z,2.69
2018-02-16T16:40:36.218Z,2.69
2018-02-16T16:43:09.748Z,2.67
2018-02-16T16:45:37.767Z,2.71
2018-02-16T16:48:05.676Z,2.72
2018-02-16T16:50:33.708Z,2.72
2018-02-16T16:53:01.739Z,2.70
2018-02-16T16:55:29.723Z,2.63
2018-02-16T16:57:57.319Z,2.51
2018-02-16T17:00:24.987Z,2.46
2018-02-16T17:02:52.628Z,2.43
2018-02-16T17:05:21.220Z,2.45
2018-02-16T17:07:49.294Z,2.43
2018-02-16T17:10:22.096Z,2.39
2018-02-16T17:12:55.055Z,2.37
2018-02-16T17:15:28.467Z,2.38
2018-02-16T17:18:03.055Z,2.69
2018-02-16T17:20:38.573Z,2.80
2018-02-16T17:23:12.679Z,2.85
2018-02-16T17:25:45.839Z,2.82
2018-02-16T17:28:18.084Z,2.87
2018-02-16T17:30:46.150Z,2.97
2018-02-16T17:33:14.106Z,3.03
2018-02-16T17:35:42.105Z,3.18
2018-02-16T17:38:17.194Z,3.09
2018-02-16T17:40:49.742Z,2.96
2018-02-16T17:43:18.354Z,2.88
2018-02-16T17:45:46.021Z,2.78
2018-02-16T17:48:18.666Z,2.68
2018-02-16T17:50:46.248Z,2.66
2018-02-16T17:53:14.250Z,2.67
2018-02-16T17:55:42.111Z,2.66
2018-02-16T17:58:09.751Z,2.69
2018-02-16T18:00:37.365Z,2.66
2018-02-16T18:03:05.903Z,2.64
2018-02-16T18:05:33.735Z,2.60
2018-02-16T18:08:01.485Z,2.53
2018-02-16T18:10:29.325Z,2.50
2018-02-16T18:12:56.993Z,2.48
2018-02-16T18:15:24.662Z,2.45
2018-02-16T18:17:52.331Z,2.39
2018-02-16T18:20:20.204Z,2.30
2018-02-16T18:22:47.832Z,2.29
2018-02-16T18:25:15.416Z,2.26
2018-02-16T18:27:43.067Z,2.24
2018-02-16T18:30:11.379Z,2.18
2018-02-16T18:32:39.440Z,2.18
2018-02-16T18:35:07.728Z,2.21
2018-02-16T18:37:35.365Z,2.19
2018-02-16T18:40:02.975Z,2.16
2018-02-16T18:42:30.609Z,2.06
2018-02-16T18:44:58.257Z,2.06
2018-02-16T18:47:26.133Z,2.07
2018-02-16T18:49:53.799Z,2.16
2018-02-16T18:52:21.414Z,2.17
2018-02-16T18:54:49.109Z,2.15
2018-02-16T18:57:17.295Z,2.13
2018-02-16T18:59:44.965Z,2.06
2018-02-16T19:05:01.605Z,1.87
2018-02-16T19:10:10.146Z,2.00
2018-02-16T19:12:42.059Z,2.07
2018-02-16T19:15:15.355Z,2.05
2018-02-16T19:17:47.247Z,2.06
2018-02-16T19:20:16.324Z,2.09
2018-02-16T19:22:49.334Z,2.16
2018-02-16T19:25:22.964Z,2.03
2018-02-16T19:27:56.685Z,1.89
2018-02-16T19:30:32.035Z,1.81
2018-02-16T19:33:04.915Z,1.83
2018-02-16T19:35:38.375Z,1.89
2018-02-16T19:38:06.269Z,1.96
2018-02-16T19:40:41.266Z,2.07
2018-02-16T19:43:13.021Z,2.13
2018-02-16T19:45:47.073Z,2.15
2018-02-16T19:48:22.057Z,2.02
2018-02-16T19:50:49.720Z,1.89
2018-02-16T19:53:23.699Z,1.82
2018-02-16T19:55:57.170Z,1.91
2018-02-16T19:58:24.969Z,2.02
2018-02-16T20:00:54.508Z,2.11
2018-02-16T20:03:22.502Z,2.16
2018-02-16T20:05:54.053Z,2.11
2018-02-16T20:08:29.301Z,2.09
2018-02-16T20:11:01.641Z,2.00
2018-02-16T20:13:35.485Z,1.99
2018-02-16T20:16:08.289Z,1.95
2018-02-16T20:21:14.552Z,1.81
2018-02-16T20:23:46.943Z,1.78
2018-02-16T20:26:19.951Z,1.86
2018-02-16T20:28:47.564Z,1.77
2018-02-16T20:31:15.328Z,1.85
2018-02-16T20:33:46.119Z,1.86
2018-02-16T20:36:18.309Z,1.80
2018-02-16T20:38:52.668Z,1.72
2018-02-16T20:41:28.711Z,1.67
2018-02-16T20:43:56.696Z,1.65
2018-02-16T20:46:27.597Z,1.61
2018-02-16T20:48:55.215Z,1.56
2018-02-16T20:51:23.630Z,1.48
2018-02-16T20:53:51.498Z,1.42
2018-02-16T20:56:24.053Z,1.55
2018-02-16T20:58:51.985Z,1.48
2018-02-16T21:01:19.616Z,1.39
2018-02-16T21:03:47.716Z,1.24
2018-02-16T21:06:15.570Z,1.02
2018-02-16T21:08:48.306Z,0.96
2018-02-16T21:11:16.993Z,1.00
2018-02-16T21:13:47.689Z,0.99
2018-02-16T21:16:20.694Z,0.86
2018-02-16T21:18:48.296Z,0.72
2018-02-16T21:21:23.494Z,0.61
2018-02-16T21:23:52.896Z,0.46
2018-02-16T21:26:25.216Z,0.37
2018-02-16T21:28:53.426Z,0.31
2018-02-16T21:31:22.173Z,0.28
2018-02-16T21:33:50.020Z,0.19
2018-02-16T21:36:19.004Z,0.19
2018-02-16T21:38:46.701Z,0.17
2018-02-16T21:41:14.765Z,0.12
2018-02-16T21:43:42.390Z,0.08
2018-02-16T21:46:10.262Z,0.10
2018-02-16T21:48:38.055Z,0.00
2018-02-16T21:51:06.287Z,-0.02
2018-02-16T21:53:34.695Z,-0.10
2018-02-16T21:56:02.413Z,-0.13
2018-02-16T21:58:30.070Z,-0.24
2018-02-16T22:00:57.792Z,-0.35
2018-02-16T22:03:25.436Z,-0.49
2018-02-16T22:05:53.090Z,-0.55
2018-02-16T22:08:20.731Z,-0.60
2018-02-16T22:10:48.352Z,-0.67
2018-02-16T22:13:15.963Z,-0.59
2018-02-16T22:15:43.596Z,-0.63
2018-02-16T22:18:11.405Z,-0.72
2018-02-16T22:20:39.038Z,-0.85
2018-02-16T22:23:06.766Z,-0.85
2018-02-16T22:25:34.466Z,-0.75
2018-02-16T22:28:02.140Z,-0.73
2018-02-16T22:30:29.797Z,-0.66
2018-02-16T22:32:57.446Z,-0.58
2018-02-16T22:35:25.115Z,-0.51
2018-02-16T22:37:52.725Z,-0.47
2018-02-16T22:40:20.535Z,-0.48
2018-02-16T22:42:52.193Z,-0.50
2018-02-16T22:45:20.184Z,-0.49
2018-02-16T22:47:47.832Z,-0.47
2018-02-16T22:50:17.282Z,-0.49
2018-02-16T22:52:45.097Z,-0.49
2018-02-16T22:55:13.531Z,-0.48
2018-02-16T22:57:41.151Z,-0.51
2018-02-16T23:00:08.839Z,-0.51
2018-02-16T23:02:36.441Z,-0.53
2018-02-16T23:05:05.138Z,-0.49
2018-02-16T23:07:32.973Z,-0.40
2018-02-16T23:10:00.925Z,-0.30
2018-02-16T23:12:28.814Z,-0.36
2018-02-16T23:14:57.165Z,-0.36
2018-02-16T23:17:24.802Z,-0.31
2018-02-16T23:19:52.416Z,-0.25
2018-02-16T23:22:20.079Z,-0.10
2018-02-16T23:24:47.666Z,0.02
2018-02-16T23:27:16.686Z,0.13
2018-02-16T23:29:44.408Z,0.18
2018-02-16T23:32:12.176Z,0.17
2018-02-16T23:34:39.915Z,0.09
2018-02-16T23:37:08.053Z,-0.03
2018-02-16T23:39:35.850Z,-0.15
2018-02-16T23:42:03.720Z,-0.19
2018-02-16T23:44:31.380Z,-0.14
2018-02-16T23:47:04.829Z,0.01
2018-02-16T23:49:32.429Z,0.12
2018-02-16T23:52:00.142Z,0.16
2018-02-16T23:54:30.029Z,0.17
2018-02-16T23:56:58.114Z,0.12
2018-02-16T23:59:25.782Z,0.12
